Time;durP1;ratioP1;P1;durP2;ratioP2;P2;SDS_P1;SDS_P2;PMS_P1;PMS_P2;Temp;Humidity;BMP_temperature;BMP_pressure;BME280_temperature;BME280_humidity;BME280_pressure;Samples;Min_cycle;Max_cycle;Signal;HPM_P1;HPM_P2
2022/04/18 00:00:00;;;;;;;4.25;1.77;;;8.80;53.50;;;;;;4974360;28;20050;-88
2022/04/18 00:02:26;;;;;;;1.73;1.55;;;8.80;53.10;;;;;;4975192;28;20023;-87
2022/04/18 00:04:52;;;;;;;5.32;1.85;;;8.80;53.10;;;;;;4972996;28;20035;-85
2022/04/18 00:07:17;;;;;;;2.10;1.42;;;8.80;53.40;;;;;;4974095;28;20023;-86
2022/04/18 00:09:43;;;;;;;7.20;2.47;;;8.80;53.50;;;;;;4974522;28;20027;-87
2022/04/18 00:12:09;;;;;;;2.13;1.55;;;8.80;53.20;;;;;;4974873;28;20027;-86
2022/04/18 00:14:34;;;;;;;4.40;1.63;;;8.70;53.40;;;;;;4973763;28;20466;-88
2022/04/18 00:17:00;;;;;;;3.22;1.70;;;8.70;54.00;;;;;;4973562;28;20023;-87
2022/04/18 00:19:26;;;;;;;3.60;1.40;;;8.60;54.20;;;;;;4973247;28;20479;-88
2022/04/18 00:21:52;;;;;;;4.47;1.95;;;8.60;55.00;;;;;;4955473;28;20039;-87
2022/04/18 00:24:19;;;;;;;1.95;1.55;;;8.50;55.10;;;;;;4955538;28;20117;-87
2022/04/18 00:26:46;;;;;;;4.88;1.58;;;8.50;54.50;;;;;;4972742;28;20106;-88
2022/04/18 00:29:12;;;;;;;3.53;1.70;;;8.50;54.10;;;;;;4974277;28;20494;-86
2022/04/18 00:31:38;;;;;;;3.10;1.55;;;8.50;54.20;;;;;;4974500;28;20486;-87
2022/04/18 00:34:04;;;;;;;2.78;1.85;;;8.50;54.00;;;;;;4974784;28;20023;-88
2022/04/18 00:36:30;;;;;;;5.38;1.80;;;8.50;54.60;;;;;;4975577;28;20062;-86
2022/04/18 00:38:55;;;;;;;2.70;1.45;;;8.50;54.20;;;;;;4978324;28;20023;-87
2022/04/18 00:41:21;;;;;;;2.17;1.50;;;8.50;54.20;;;;;;4980156;28;20033;-86
2022/04/18 00:43:49;;;;;;;2.53;1.58;;;8.40;54.30;;;;;;4978590;28;20078;-87
2022/04/18 00:46:17;;;;;;;2.40;1.70;;;8.30;54.70;;;;;;4976842;28;20438;-87
2022/04/18 00:48:43;;;;;;;5.35;1.63;;;8.30;55.10;;;;;;4959403;28;20035;-87
2022/04/18 00:51:20;;;;;;;3.35;1.42;;;8.20;54.70;;;;;;4958989;28;20061;-87
2022/04/18 00:53:46;;;;;;;2.78;1.67;;;8.20;55.90;;;;;;4959266;28;20031;-87
2022/04/18 00:56:14;;;;;;;3.30;1.58;;;8.10;55.70;;;;;;4976705;28;20049;-87
2022/04/18 00:58:41;;;;;;;4.82;1.65;;;8.10;56.10;;;;;;4976355;28;20101;-87
2022/04/18 01:01:08;;;;;;;2.83;1.70;;;8.00;57.00;;;;;;4976479;28;20031;-86
2022/04/18 01:03:34;;;;;;;3.60;1.83;;;7.90;56.90;;;;;;4958973;28;20026;-88
2022/04/18 01:06:03;;;;;;;2.22;1.50;;;7.90;57.20;;;;;;4994716;28;20037;-87
2022/04/18 01:08:31;;;;;;;3.60;1.65;;;7.90;57.10;;;;;;4960404;28;20027;-87
2022/04/18 01:10:57;;;;;;;5.15;1.83;;;7.80;56.90;;;;;;4976069;28;20042;-87
2022/04/18 01:13:23;;;;;;;4.85;1.83;;;7.90;56.50;;;;;;4976222;28;20031;-87
2022/04/18 01:15:52;;;;;;;4.45;1.85;;;7.90;56.50;;;;;;4976049;28;20045;-87
2022/04/18 01:18:18;;;;;;;2.65;1.60;;;7.90;56.40;;;;;;4975947;28;20035;-87
2022/04/18 01:20:44;;;;;;;3.63;2.00;;;7.90;56.40;;;;;;4976272;28;20557;-87
2022/04/18 01:23:10;;;;;;;1.70;1.42;;;7.80;56.50;;;;;;4974667;28;20030;-87
2022/04/18 01:31:04;;;;;;;1.92;1.52;;;7.90;57.10;;;;;;4975979;28;20041;-87
2022/04/18 01:33:30;;;;;;;2.05;1.42;;;7.80;56.80;;;;;;4975908;28;20035;-87
2022/04/18 01:35:56;;;;;;;3.72;1.75;;;7.80;56.90;;;;;;4974402;28;20085;-88
2022/04/18 01:38:21;;;;;;;4.68;2.22;;;7.80;56.80;;;;;;4974198;28;20035;-88
2022/04/18 01:40:47;;;;;;;5.13;2.08;;;7.70;57.40;;;;;;4975246;28;20030;-88
2022/04/18 01:43:13;;;;;;;3.42;1.73;;;7.70;57.30;;;;;;4975421;28;20030;-86
2022/04/18 01:45:38;;;;;;;2.70;1.63;;;7.70;57.40;;;;;;4975795;28;20402;-87
2022/04/18 01:48:05;;;;;;;3.20;1.88;;;7.60;57.10;;;;;;4974413;28;20523;-87
2022/04/18 01:50:30;;;;;;;3.80;2.13;;;7.60;57.40;;;;;;4974465;28;20118;-87
2022/04/18 01:52:56;;;;;;;4.45;1.85;;;7.50;57.60;;;;;;4975760;28;20061;-87
2022/04/18 01:55:21;;;;;;;3.75;1.60;;;7.50;57.60;;;;;;4975645;28;20042;-86
2022/04/18 01:57:47;;;;;;;2.40;1.70;;;7.40;57.70;;;;;;4975077;28;20053;-86
2022/04/18 02:00:13;;;;;;;4.90;1.80;;;7.40;58.10;;;;;;4974974;28;20128;-87
2022/04/18 02:02:39;;;;;;;2.90;1.92;;;7.50;58.20;;;;;;4974098;28;20049;-86
2022/04/18 02:05:07;;;;;;;3.33;2.25;;;7.50;57.80;;;;;;4974512;28;20051;-87
2022/04/18 02:07:33;;;;;;;4.40;1.80;;;7.50;58.60;;;;;;4973956;28;20096;-86
2022/04/18 02:09:58;;;;;;;2.97;2.10;;;7.40;58.00;;;;;;4975545;28;20471;-86
2022/04/18 02:12:24;;;;;;;2.88;1.70;;;7.40;58.30;;;;;;4975445;28;20030;-87
2022/04/18 02:14:49;;;;;;;2.53;1.98;;;7.40;58.70;;;;;;4973779;28;20114;-88
2022/04/18 02:17:15;;;;;;;3.22;2.17;;;7.30;58.80;;;;;;4974739;28;20097;-87
2022/04/18 02:19:41;;;;;;;3.40;2.08;;;7.30;59.10;;;;;;4974874;28;20033;-87
2022/04/18 02:22:06;;;;;;;2.35;1.75;;;7.30;58.90;;;;;;4957270;28;20398;-87
2022/04/18 02:24:32;;;;;;;3.28;2.13;;;7.20;59.10;;;;;;4974984;28;20061;-87
2022/04/18 02:26:58;;;;;;;2.88;1.63;;;7.30;58.90;;;;;;4957243;28;20390;-86
2022/04/18 02:29:24;;;;;;;2.47;1.50;;;7.20;59.70;;;;;;4957695;28;20034;-87
2022/04/18 02:34:33;;;;;;;2.65;1.77;;;7.10;60.60;;;;;;4975042;28;20049;-86
2022/04/18 02:36:59;;;;;;;2.65;2.05;;;7.00;60.50;;;;;;4974634;28;20023;-86
2022/04/18 02:39:25;;;;;;;3.60;2.30;;;7.00;60.20;;;;;;4974698;28;20027;-86
2022/04/18 02:41:50;;;;;;;2.40;1.80;;;6.90;60.00;;;;;;4974365;28;20567;-86
2022/04/18 02:44:16;;;;;;;2.47;1.88;;;6.90;60.30;;;;;;4957106;28;20027;-86
2022/04/18 02:46:41;;;;;;;3.28;2.08;;;6.90;60.20;;;;;;4957111;28;20054;-84
2022/04/18 02:49:07;;;;;;;4.35;2.05;;;6.80;60.80;;;;;;4974478;28;20141;-86
2022/04/18 02:51:32;;;;;;;2.78;1.70;;;6.90;60.10;;;;;;4974373;28;20479;-86
2022/04/18 02:54:00;;;;;;;3.08;1.88;;;6.90;60.30;;;;;;4974194;28;20037;-87
2022/04/18 02:56:26;;;;;;;4.47;1.98;;;6.90;60.30;;;;;;4957023;28;20022;-86
2022/04/18 02:58:51;;;;;;;2.40;1.80;;;6.90;60.10;;;;;;4974506;28;20082;-86
2022/04/18 03:01:17;;;;;;;2.92;2.08;;;6.80;60.60;;;;;;4971754;28;20027;-87
2022/04/18 03:03:42;;;;;;;4.82;1.70;;;6.90;60.00;;;;;;4975654;28;20023;-87
2022/04/18 03:06:10;;;;;;;3.83;2.17;;;6.90;60.00;;;;;;4974495;28;20391;-86
2022/04/18 03:08:35;;;;;;;2.95;1.92;;;6.90;60.10;;;;;;4974299;28;20031;-86
2022/04/18 03:11:05;;;;;;;2.97;1.92;;;6.80;60.30;;;;;;4974260;28;20034;-86
2022/04/18 03:13:34;;;;;;;5.18;1.90;;;6.80;60.40;;;;;;4974320;28;20399;-87
2022/04/18 03:16:01;;;;;;;2.72;1.85;;;6.80;60.80;;;;;;4972983;28;20077;-86
2022/04/18 03:18:27;;;;;;;2.70;2.20;;;6.80;60.40;;;;;;4973289;28;20117;-87
2022/04/18 03:20:52;;;;;;;2.65;1.90;;;6.80;61.10;;;;;;4974327;28;20023;-86
2022/04/18 03:23:21;;;;;;;5.32;1.80;;;6.80;60.90;;;;;;4974228;28;20029;-88
2022/04/18 03:25:46;;;;;;;3.35;1.90;;;6.80;60.80;;;;;;4957008;28;20386;-88
2022/04/18 03:28:12;;;;;;;3.10;1.80;;;6.70;61.00;;;;;;4973405;28;20138;-86
2022/04/18 03:30:39;;;;;;;4.80;2.22;;;6.70;61.30;;;;;;4956743;28;20217;-87
2022/04/18 03:33:05;;;;;;;2.97;1.95;;;6.70;61.00;;;;;;4957230;28;20054;-87
2022/04/18 03:35:30;;;;;;;3.97;2.28;;;6.70;61.60;;;;;;4974215;28;20058;-87
2022/04/18 03:40:43;;;;;;;2.65;2.08;;;6.60;61.70;;;;;;4974312;28;20093;-88
2022/04/18 03:43:09;;;;;;;3.42;1.80;;;6.60;61.10;;;;;;4956785;28;20512;-87
2022/04/18 03:45:35;;;;;;;4.88;2.00;;;6.50;61.70;;;;;;4974350;28;20070;-87
2022/04/18 03:48:00;;;;;;;4.68;1.63;;;6.60;61.20;;;;;;4975205;28;20058;-87
2022/04/18 03:50:26;;;;;;;4.57;1.98;;;6.60;61.10;;;;;;4956953;28;20027;-88
2022/04/18 03:52:52;;;;;;;3.25;2.20;;;6.60;61.10;;;;;;4974063;28;20546;-87
2022/04/18 03:55:17;;;;;;;3.88;2.13;;;6.60;61.30;;;;;;4970765;23;20049;-85
2022/04/18 03:57:43;;;;;;;5.13;2.00;;;6.60;61.60;;;;;;4963559;28;20479;-83
2022/04/18 04:00:10;;;;;;;6.70;2.00;;;6.50;62.10;;;;;;4973437;28;20026;-86
2022/04/18 04:02:36;;;;;;;5.32;1.85;;;6.50;62.20;;;;;;4975410;28;20118;-86
2022/04/18 04:05:03;;;;;;;3.63;2.05;;;6.40;62.60;;;;;;4976267;28;20031;-86
2022/04/18 04:07:28;;;;;;;4.57;2.17;;;6.40;62.90;;;;;;4974625;28;20103;-86
2022/04/18 04:09:54;;;;;;;5.00;2.20;;;6.30;63.20;;;;;;4973445;28;20038;-85
2022/04/18 04:12:24;;;;;;;2.10;1.63;;;6.30;63.20;;;;;;4973350;28;20023;-84
2022/04/18 04:14:54;;;;;;;2.00;1.77;;;6.30;63.40;;;;;;4973998;28;20070;-85
2022/04/18 04:17:21;;;;;;;3.90;2.38;;;6.20;63.40;;;;;;4973696;28;20262;-85
2022/04/18 04:19:47;;;;;;;2.65;1.77;;;6.20;63.30;;;;;;4973573;28;20023;-85
2022/04/18 04:22:12;;;;;;;5.35;2.10;;;6.20;63.70;;;;;;4973581;28;20033;-84
2022/04/18 04:24:38;;;;;;;8.80;2.70;;;6.20;63.90;;;;;;4973389;28;20031;-86
2022/04/18 04:27:05;;;;;;;2.75;2.20;;;6.10;63.50;;;;;;4972277;28;20082;-84
2022/04/18 04:29:31;;;;;;;2.38;2.17;;;6.20;63.30;;;;;;4970903;28;20029;-85
2022/04/18 04:31:57;;;;;;;5.22;1.90;;;6.10;63.30;;;;;;4991155;28;20047;-87
2022/04/18 04:34:23;;;;;;;4.32;2.33;;;6.10;63.70;;;;;;4978409;28;20082;-85
2022/04/18 04:36:48;;;;;;;4.07;2.20;;;6.20;64.30;;;;;;4983912;28;20089;-86
2022/04/18 04:39:14;;;;;;;7.28;2.13;;;6.20;64.70;;;;;;4975825;28;20035;-85
2022/04/18 04:41:39;;;;;;;3.35;2.30;;;6.20;64.00;;;;;;4957365;28;20019;-85
2022/04/18 04:44:06;;;;;;;3.75;2.10;;;6.20;64.50;;;;;;4957947;28;20416;-85
2022/04/18 04:46:33;;;;;;;5.55;2.35;;;6.20;63.80;;;;;;4974735;28;20098;-85
2022/04/18 04:48:59;;;;;;;2.50;2.10;;;6.20;64.20;;;;;;4955979;28;20491;-85
2022/04/18 04:51:24;;;;;;;6.50;2.13;;;6.20;64.80;;;;;;4973248;28;20073;-85
2022/04/18 04:53:50;;;;;;;2.50;1.92;;;6.20;65.10;;;;;;4973351;28;20050;-85
2022/04/18 04:56:17;;;;;;;3.03;2.15;;;6.10;65.30;;;;;;4955560;28;20442;-84
2022/04/18 04:58:43;;;;;;;7.68;2.25;;;6.00;65.60;;;;;;4973166;28;20027;-85
2022/04/18 05:01:08;;;;;;;6.78;2.13;;;5.90;66.80;;;;;;4973234;28;20054;-85
2022/04/18 05:03:34;;;;;;;2.92;1.80;;;5.80;67.30;;;;;;4956681;28;20050;-85
2022/04/18 05:05:59;;;;;;;3.03;2.00;;;5.70;67.60;;;;;;4971699;28;20023;-86
2022/04/18 05:08:25;;;;;;;4.10;1.80;;;5.70;68.30;;;;;;4973018;28;20487;-84
2022/04/18 05:10:54;;;;;;;4.95;2.13;;;5.70;68.70;;;;;;4972779;28;20038;-84
2022/04/18 05:13:21;;;;;;;2.55;2.20;;;5.70;68.60;;;;;;4972337;28;20451;-85
2022/04/18 05:15:47;;;;;;;3.40;2.33;;;5.70;67.70;;;;;;4971635;28;20399;-84
2022/04/18 05:18:12;;;;;;;2.55;1.92;;;5.80;68.00;;;;;;4973087;28;20050;-84
2022/04/18 05:20:39;;;;;;;3.88;2.53;;;5.80;67.70;;;;;;4955573;28;20054;-85
2022/04/18 05:23:05;;;;;;;2.17;1.98;;;5.80;68.60;;;;;;4973121;28;20034;-86
2022/04/18 05:25:31;;;;;;;3.63;2.25;;;5.80;67.50;;;;;;4976017;28;20113;-86
2022/04/18 05:27:57;;;;;;;4.40;1.90;;;5.80;67.30;;;;;;4976562;28;20023;-85
2022/04/18 05:30:22;;;;;;;2.47;1.98;;;5.80;67.50;;;;;;4959167;28;20023;-84
2022/04/18 05:32:48;;;;;;;5.78;2.10;;;5.80;69.10;;;;;;4976570;28;20027;-86
2022/04/18 05:35:14;;;;;;;4.03;2.05;;;5.80;69.10;;;;;;4959994;28;20118;-84
2022/04/18 05:37:40;;;;;;;3.08;1.75;;;5.80;69.90;;;;;;4978997;28;20035;-86
2022/04/18 05:40:06;;;;;;;3.42;2.70;;;5.80;70.30;;;;;;4976525;28;20030;-86
2022/04/18 05:42:31;;;;;;;6.03;2.15;;;5.80;69.70;;;;;;4976604;28;20031;-84
2022/04/18 05:44:57;;;;;;;3.17;2.10;;;5.80;68.60;;;;;;4976430;28;20025;-86
2022/04/18 05:47:24;;;;;;;5.80;2.60;;;6.00;68.50;;;;;;4959096;28;20471;-85
2022/04/18 05:49:49;;;;;;;5.72;2.75;;;6.10;67.70;;;;;;4977078;28;20039;-85
2022/04/18 05:52:15;;;;;;;3.92;2.28;;;6.20;66.70;;;;;;4959363;28;20027;-85
2022/04/18 05:54:41;;;;;;;5.38;2.47;;;6.30;67.40;;;;;;4976755;28;20034;-85
2022/04/18 05:57:07;;;;;;;3.80;2.65;;;6.30;67.10;;;;;;4984527;28;20038;-86
2022/04/18 05:59:33;;;;;;;3.45;2.08;;;6.40;66.40;;;;;;4968288;28;20023;-85
2022/04/18 06:01:59;;;;;;;3.90;2.38;;;6.40;65.10;;;;;;4968498;28;20019;-85
2022/04/18 06:04:24;;;;;;;5.50;2.28;;;6.60;64.80;;;;;;4962674;28;20541;-85
2022/04/18 06:06:50;;;;;;;5.03;2.40;;;6.60;65.00;;;;;;4978033;28;20645;-85
2022/04/18 06:09:15;;;;;;;4.78;2.65;;;6.70;63.90;;;;;;4977990;28;20495;-85
2022/04/18 06:11:41;;;;;;;4.93;2.70;;;6.80;63.20;;;;;;4976874;28;20031;-85
2022/04/18 06:14:08;;;;;;;3.58;2.53;;;6.80;62.80;;;;;;4982943;28;20019;-87
2022/04/18 06:16:33;;;;;;;6.00;2.80;;;6.90;62.40;;;;;;4985040;28;20018;-86
2022/04/18 06:18:59;;;;;;;3.97;2.33;;;7.00;62.10;;;;;;4978359;28;20105;-86
2022/04/18 06:21:24;;;;;;;2.53;2.13;;;7.10;61.00;;;;;;4976276;28;20530;-86
2022/04/18 06:23:50;;;;;;;4.38;2.65;;;7.20;60.90;;;;;;4976805;28;20049;-86
2022/04/18 06:26:16;;;;;;;3.83;2.47;;;7.30;61.60;;;;;;4975652;28;20455;-86
2022/04/18 06:28:42;;;;;;;3.30;2.90;;;7.40;62.20;;;;;;4976483;28;20026;-86
2022/04/18 06:31:07;;;;;;;7.28;3.13;;;7.40;60.90;;;;;;4975314;28;20038;-86
2022/04/18 06:33:34;;;;;;;5.75;2.47;;;7.50;60.50;;;;;;4976384;28;20046;-86
2022/04/18 06:36:01;;;;;;;3.90;2.40;;;7.60;60.90;;;;;;4975469;28;20111;-86
2022/04/18 06:38:28;;;;;;;3.55;2.38;;;7.60;59.60;;;;;;4975786;28;20061;-86
2022/04/18 06:40:56;;;;;;;4.55;3.03;;;7.70;59.80;;;;;;4974870;28;20047;-86
2022/04/18 06:43:22;;;;;;;7.35;2.80;;;7.80;60.60;;;;;;4963952;28;20101;-86
2022/04/18 06:45:48;;;;;;;4.18;2.55;;;7.90;59.00;;;;;;4978157;28;20036;-85
2022/04/18 06:48:14;;;;;;;4.15;2.72;;;7.90;59.20;;;;;;4977973;28;20035;-86
2022/04/18 06:50:40;;;;;;;5.50;2.97;;;8.00;58.80;;;;;;4978414;28;20039;-87
2022/04/18 06:53:05;;;;;;;4.57;2.85;;;8.00;58.60;;;;;;4978904;28;20034;-86
2022/04/18 06:56:58;;;;;;;4.60;2.67;;;8.10;58.00;;;;;;4979756;28;20034;-85
2022/04/18 06:58:17;;;;;;;5.57;2.55;;;8.10;57.80;;;;;;4978181;28;20034;-85
2022/04/18 07:00:42;;;;;;;4.05;2.30;;;8.20;58.40;;;;;;4978824;28;20046;-86
2022/04/18 07:03:08;;;;;;;6.07;2.95;;;8.40;57.60;;;;;;4960910;28;20031;-86
2022/04/18 07:05:34;;;;;;;4.38;2.60;;;8.50;57.70;;;;;;4979288;28;20077;-86
2022/04/18 07:07:59;;;;;;;11.02;3.55;;;8.50;57.00;;;;;;4969361;28;20023;-85
2022/04/18 07:10:25;;;;;;;8.88;3.53;;;8.50;57.00;;;;;;4977660;28;20022;-84
2022/04/18 07:12:51;;;;;;;6.10;2.60;;;8.60;57.30;;;;;;4978671;28;20031;-86
2022/04/18 07:15:17;;;;;;;6.88;3.30;;;8.70;57.20;;;;;;4975453;28;20387;-85
2022/04/18 07:17:42;;;;;;;5.72;2.72;;;8.70;56.10;;;;;;4974917;28;20026;-85
2022/04/18 07:20:09;;;;;;;5.82;3.65;;;8.80;56.20;;;;;;4974600;28;20023;-85
2022/04/18 07:22:41;;;;;;;10.65;5.13;;;8.80;56.40;;;;;;4975373;28;20037;-86
2022/04/18 07:25:20;;;;;;;3.97;2.63;;;8.90;57.00;;;;;;4958873;28;20027;-86
2022/04/18 07:28:31;;;;;;;8.13;3.15;;;9.00;56.30;;;;;;4959610;28;20053;-86
2022/04/18 07:31:35;;;;;;;3.97;2.75;;;9.10;55.90;;;;;;4959563;28;20030;-86
2022/04/18 07:34:22;;;;;;;4.65;2.67;;;9.10;55.60;;;;;;4963623;28;20037;-87
2022/04/18 07:40:16;;;;;;;8.85;2.60;;;9.30;55.00;;;;;;4883500;28;20044;-86
2022/04/18 07:42:42;;;;;;;7.20;3.17;;;9.40;54.90;;;;;;4975106;28;20030;-87
2022/04/18 07:45:08;;;;;;;9.70;3.22;;;9.50;53.70;;;;;;4974313;28;20026;-87
2022/04/18 07:47:33;;;;;;;7.15;3.20;;;9.60;53.50;;;;;;4974430;28;20059;-87
2022/04/18 07:49:59;;;;;;;5.35;3.08;;;9.70;54.10;;;;;;4959068;28;20023;-87
2022/04/18 07:52:25;;;;;;;4.85;2.92;;;9.80;53.30;;;;;;4979317;28;20073;-87
2022/04/18 07:54:50;;;;;;;4.97;3.22;;;9.90;52.40;;;;;;4978140;28;20391;-87
2022/04/18 07:57:16;;;;;;;8.00;3.55;;;10.00;52.10;;;;;;4974545;28;20595;-87
2022/04/18 07:59:42;;;;;;;5.55;3.08;;;10.10;51.70;;;;;;4974331;28;20490;-87
2022/04/18 08:02:08;;;;;;;4.40;2.45;;;10.30;51.90;;;;;;4973620;28;20101;-85
2022/04/18 08:04:34;;;;;;;3.92;2.90;;;10.30;51.40;;;;;;4973837;28;20026;-84
2022/04/18 08:07:00;;;;;;;3.50;2.60;;;10.40;50.40;;;;;;4973964;28;20158;-85
2022/04/18 08:09:25;;;;;;;6.65;2.53;;;10.50;49.90;;;;;;4974973;28;20501;-86
2022/04/18 08:11:51;;;;;;;4.95;2.88;;;10.60;50.20;;;;;;4977200;28;20058;-86
2022/04/18 08:14:17;;;;;;;6.85;2.90;;;10.70;49.50;;;;;;4961835;28;20081;-85
2022/04/18 08:16:42;;;;;;;4.20;2.85;;;10.80;50.90;;;;;;4974764;28;20110;-86
2022/04/18 08:19:08;;;;;;;6.63;2.47;;;10.80;48.90;;;;;;4974507;28;20038;-86
2022/04/18 08:21:34;;;;;;;6.00;2.63;;;10.90;48.10;;;;;;4974060;28;20030;-86
2022/04/18 08:24:06;;;;;;;6.40;2.78;;;11.10;49.30;;;;;;4983925;28;20108;-86
2022/04/18 08:26:32;;;;;;;4.95;2.67;;;11.30;48.00;;;;;;4993893;28;20031;-86
2022/04/18 08:28:57;;;;;;;4.72;2.30;;;11.30;48.20;;;;;;4975246;28;20026;-86
2022/04/18 08:31:24;;;;;;;5.68;2.70;;;11.40;48.10;;;;;;4956323;28;20053;-86
2022/04/18 08:33:50;;;;;;;3.45;2.38;;;11.50;47.60;;;;;;4973569;28;20026;-86
2022/04/18 08:36:15;;;;;;;4.55;2.80;;;11.70;47.40;;;;;;4956957;28;20031;-85
2022/04/18 08:38:41;;;;;;;5.35;2.70;;;11.70;47.30;;;;;;4974399;28;20042;-85
2022/04/18 08:41:09;;;;;;;4.88;2.22;;;11.90;46.80;;;;;;4973875;28;20019;-85
2022/04/18 08:43:35;;;;;;;4.40;2.30;;;12.00;46.70;;;;;;4974214;28;20030;-86
2022/04/18 08:46:08;;;;;;;3.10;2.45;;;12.20;45.90;;;;;;4987830;28;20031;-87
2022/04/18 08:54:07;;;;;;;4.03;2.22;;;12.50;44.40;;;;;;4989074;28;20120;-87
2022/04/18 08:56:34;;;;;;;3.25;2.20;;;12.60;44.50;;;;;;4987579;28;20045;-86
2022/04/18 08:58:59;;;;;;;3.78;2.28;;;12.70;44.50;;;;;;4991410;28;20102;-86
2022/04/18 09:01:25;;;;;;;5.63;2.42;;;12.70;44.20;;;;;;4978634;28;20031;-87
2022/04/18 09:03:50;;;;;;;4.50;2.35;;;12.90;44.20;;;;;;4977446;28;20078;-87
2022/04/18 09:06:16;;;;;;;3.90;2.00;;;13.00;44.60;;;;;;4978005;28;20527;-87
2022/04/18 09:08:52;;;;;;;4.80;2.10;;;13.20;43.10;;;;;;4977804;28;20019;-87
2022/04/18 09:11:40;;;;;;;2.95;1.92;;;13.40;43.30;;;;;;4977458;28;20082;-87
2022/04/18 09:14:10;;;;;;;3.67;2.25;;;13.60;43.10;;;;;;4975996;28;20146;-87
2022/04/18 09:16:37;;;;;;;4.05;2.03;;;13.80;42.50;;;;;;4977327;28;20041;-88
2022/04/18 09:19:09;;;;;;;3.40;2.28;;;13.80;42.60;;;;;;4976714;28;20023;-88
2022/04/18 09:22:24;;;;;;;2.88;2.00;;;14.00;42.00;;;;;;4977258;28;20023;-87
2022/04/18 09:24:54;;;;;;;5.45;2.10;;;14.30;41.40;;;;;;4907329;28;20031;-86
2022/04/18 09:27:29;;;;;;;5.40;2.20;;;14.30;41.40;;;;;;4979780;28;20030;-85
2022/04/18 09:30:07;;;;;;;3.50;1.90;;;14.30;41.90;;;;;;4980095;28;20043;-86
2022/04/18 09:32:32;;;;;;;1.92;1.25;;;14.50;41.80;;;;;;4979842;28;20110;-86
2022/04/18 09:35:04;;;;;;;3.70;2.00;;;14.60;42.10;;;;;;4979121;28;20054;-86
2022/04/18 09:37:31;;;;;;;3.45;1.85;;;14.60;40.90;;;;;;4977812;28;20031;-85
2022/04/18 09:39:57;;;;;;;3.13;1.63;;;14.70;40.10;;;;;;4979399;28;20082;-85
2022/04/18 09:42:32;;;;;;;4.13;1.98;;;14.90;40.00;;;;;;4961969;28;20031;-90
2022/04/18 09:45:00;;;;;;;5.68;2.10;;;15.00;39.50;;;;;;4962228;28;20491;-90
2022/04/18 09:47:34;;;;;;;2.88;1.98;;;15.20;40.40;;;;;;4980043;28;20102;-85
2022/04/18 09:53:05;;;;;;;5.28;2.40;;;15.30;38.40;;;;;;4980559;28;20086;-86
2022/04/18 10:20:48;;;;;;;5.28;1.90;;;17.00;37.30;;;;;;4845186;29;20543;-84
2022/04/18 10:23:20;;;;;;;;;;;17.10;36.00;;;;;;4851704;29;20043;-85
2022/04/18 10:26:13;;;;;;;3.30;1.50;;;16.90;36.30;;;;;;4942479;29;19906;-84
2022/04/18 10:28:42;;;;;;;3.95;1.70;;;17.00;36.70;;;;;;4942414;29;20087;-86
2022/04/18 10:31:15;;;;;;;2.65;1.63;;;16.80;36.70;;;;;;4952579;29;20093;-84
2022/04/18 10:33:42;;;;;;;2.97;1.50;;;17.10;37.00;;;;;;4958977;29;20050;-83
2022/04/18 10:36:09;;;;;;;6.07;2.20;;;17.50;36.60;;;;;;4957157;28;20027;-83
2022/04/18 10:38:40;;;;;;;3.08;1.88;;;17.70;35.60;;;;;;4958501;29;20039;-83
2022/04/18 10:41:32;;;;;;;5.35;1.95;;;17.70;35.20;;;;;;4958293;28;20158;-85
2022/04/18 10:44:12;;;;;;;4.63;1.70;;;17.60;34.80;;;;;;4957006;29;20030;-85
2022/04/18 10:46:41;;;;;;;4.05;1.42;;;17.60;36.60;;;;;;4957464;28;20035;-83
2022/04/18 10:49:20;;;;;;;6.38;1.40;;;17.60;35.40;;;;;;4959425;29;20031;-83
2022/04/18 10:51:48;;;;;;;3.03;1.63;;;18.10;35.20;;;;;;4959099;29;20034;-83
2022/04/18 10:54:15;;;;;;;5.25;1.42;;;18.30;34.50;;;;;;4959128;28;20447;-85
2022/04/18 10:56:52;;;;;;;4.35;1.42;;;18.20;35.40;;;;;;4958906;29;20099;-85
2022/04/18 10:59:23;;;;;;;2.97;1.83;;;18.50;33.90;;;;;;4958717;28;20043;-83
2022/04/18 11:01:50;;;;;;;2.38;1.50;;;18.60;33.50;;;;;;4957218;29;20063;-84
2022/04/18 11:04:16;;;;;;;3.55;1.45;;;18.30;34.50;;;;;;4958708;29;20039;-84
2022/04/18 11:06:44;;;;;;;4.82;1.80;;;18.40;34.00;;;;;;4958129;28;20036;-85
2022/04/18 11:09:13;;;;;;;2.08;1.30;;;18.60;33.10;;;;;;4942471;29;20114;-85
2022/04/18 11:11:47;;;;;;;2.03;1.45;;;18.80;33.60;;;;;;4940914;29;20078;-85
2022/04/18 11:14:48;;;;;;;2.58;1.60;;;18.90;34.20;;;;;;4958607;29;20055;-84
2022/04/18 11:17:36;;;;;;;6.75;1.52;;;18.60;33.80;;;;;;4959351;28;20031;-82
2022/04/18 11:20:27;;;;;;;1.73;1.55;;;18.40;33.30;;;;;;4959510;29;20035;-85
2022/04/18 11:23:30;;;;;;;;;;;18.30;33.90;;;;;;4942027;29;20491;-84
2022/04/18 11:26:03;;;;;;;7.10;1.90;;;18.20;34.20;;;;;;4918071;29;19914;-83
2022/04/18 11:28:39;;;;;;;2.90;1.60;;;18.60;33.60;;;;;;4958676;29;20034;-86
2022/04/18 11:31:23;;;;;;;3.75;1.75;;;19.00;34.00;;;;;;4940572;29;20440;-86
2022/04/18 11:33:48;;;;;;;2.65;1.58;;;18.90;32.90;;;;;;4957757;29;20046;-85
2022/04/18 11:36:15;;;;;;;2.53;1.48;;;18.90;33.60;;;;;;4957549;29;20027;-83
2022/04/18 11:38:41;;;;;;;2.75;1.60;;;19.10;32.30;;;;;;4957780;28;20041;-85
2022/04/18 11:41:13;;;;;;;3.47;1.60;;;19.50;33.00;;;;;;4940011;29;20054;-87
2022/04/18 11:43:40;;;;;;;3.40;1.80;;;19.80;32.90;;;;;;4957601;29;20050;-85
2022/04/18 11:46:07;;;;;;;2.72;1.17;;;19.70;32.70;;;;;;4958248;29;20439;-86
2022/04/18 11:48:36;;;;;;;3.00;1.55;;;19.50;31.20;;;;;;4957582;28;20488;-85
2022/04/18 11:51:03;;;;;;;5.38;2.25;;;19.60;32.70;;;;;;4957759;29;20046;-83
2022/04/18 11:53:33;;;;;;;2.97;1.90;;;20.00;32.40;;;;;;4940424;29;20031;-83
2022/04/18 11:56:03;;;;;;;3.63;1.73;;;20.20;31.60;;;;;;4939903;29;20523;-86
2022/04/18 11:58:33;;;;;;;1.52;1.23;;;20.30;31.60;;;;;;4940017;29;20083;-88
2022/04/18 12:06:46;;;;;;;5.53;1.75;;;20.40;32.00;;;;;;4957310;29;20085;-85
2022/04/18 12:09:14;;;;;;;1.88;1.58;;;20.40;32.10;;;;;;4957427;29;20112;-85
2022/04/18 12:11:41;;;;;;;4.47;1.55;;;20.40;32.00;;;;;;4956695;29;20501;-86
2022/04/18 12:14:07;;;;;;;1.92;1.63;;;20.20;32.30;;;;;;4957613;28;20038;-85
2022/04/18 12:16:33;;;;;;;4.47;1.85;;;20.10;31.60;;;;;;4956651;28;20036;-85
2022/04/18 12:18:59;;;;;;;2.63;1.88;;;19.80;31.80;;;;;;4957345;28;20025;-85
2022/04/18 12:21:25;;;;;;;3.03;1.98;;;19.70;32.80;;;;;;4957465;29;20031;-85
2022/04/18 12:23:56;;;;;;;6.10;1.75;;;19.80;32.80;;;;;;4940781;29;20023;-85
2022/04/18 12:26:28;;;;;;;2.55;1.83;;;19.60;32.10;;;;;;4957069;29;20047;-85
2022/04/18 12:28:59;;;;;;;2.92;2.10;;;19.50;33.10;;;;;;4957171;29;20039;-85
2022/04/18 12:31:24;;;;;;;2.20;1.60;;;19.50;33.30;;;;;;4939369;29;20117;-86
2022/04/18 12:33:50;;;;;;;2.67;1.85;;;19.40;34.50;;;;;;4956120;29;20070;-86
2022/04/18 12:36:32;;;;;;;4.38;1.52;;;19.60;33.00;;;;;;4956575;28;20031;-86
2022/04/18 12:38:58;;;;;;;5.80;2.50;;;19.70;33.40;;;;;;4938622;29;20039;-88
2022/04/18 12:41:40;;;;;;;6.53;1.90;;;19.80;34.00;;;;;;4954097;28;20024;-88
2022/04/18 12:44:13;;;;;;;2.08;1.73;;;19.90;33.60;;;;;;4954152;29;20028;-85
2022/04/18 12:46:41;;;;;;;3.47;2.10;;;20.10;33.10;;;;;;4953879;29;20082;-85
2022/04/18 12:49:11;;;;;;;3.97;2.38;;;20.30;34.60;;;;;;4953932;29;20039;-85
2022/04/18 12:51:39;;;;;;;3.75;2.30;;;20.40;33.20;;;;;;4953857;28;20038;-87
2022/04/18 12:54:16;;;;;;;6.10;2.35;;;20.60;34.40;;;;;;4954439;29;20082;-88
2022/04/18 12:56:46;;;;;;;3.78;2.28;;;20.90;33.70;;;;;;4954079;28;20126;-86
2022/04/18 12:59:14;;;;;;;5.40;2.42;;;21.00;32.40;;;;;;4954441;28;20034;-83
2022/04/18 13:01:40;;;;;;;8.02;2.38;;;21.00;32.30;;;;;;4952725;29;20041;-84
2022/04/18 13:04:21;;;;;;;2.53;1.90;;;21.10;31.70;;;;;;4954631;29;20063;-85
2022/04/18 13:06:56;;;;;;;2.45;2.00;;;20.90;32.10;;;;;;4954189;28;20049;-88
2022/04/18 13:09:22;;;;;;;2.88;1.92;;;21.00;31.60;;;;;;4953261;29;20102;-85
2022/04/18 13:11:49;;;;;;;3.97;2.10;;;21.20;31.70;;;;;;4956232;29;20549;-85
2022/04/18 13:14:14;;;;;;;3.90;1.98;;;21.60;31.20;;;;;;4954601;28;20054;-85
2022/04/18 13:16:42;;;;;;;4.93;1.88;;;21.50;31.00;;;;;;4954261;28;20043;-85
2022/04/18 13:19:13;;;;;;;5.00;1.80;;;21.60;31.10;;;;;;4953907;28;20051;-84
2022/04/18 13:21:40;;;;;;;3.20;1.80;;;21.60;30.50;;;;;;4953897;29;20058;-85
2022/04/18 13:24:07;;;;;;;6.40;2.05;;;21.20;31.20;;;;;;4954220;28;20039;-86
2022/04/18 13:26:33;;;;;;;4.13;2.08;;;21.30;31.00;;;;;;4936750;29;20023;-85
2022/04/18 13:28:59;;;;;;;1.90;1.30;;;21.00;31.40;;;;;;4954369;28;20114;-85
2022/04/18 13:31:26;;;;;;;3.33;1.58;;;21.20;31.00;;;;;;4953789;29;20479;-84
2022/04/18 13:33:52;;;;;;;4.18;1.80;;;21.50;30.60;;;;;;4936534;29;20107;-87
2022/04/18 13:36:33;;;;;;;2.85;1.70;;;21.90;30.60;;;;;;4953768;29;20047;-86
2022/04/18 13:38:59;;;;;;;2.35;1.70;;;22.10;31.60;;;;;;4953947;29;20087;-85
2022/04/18 13:41:25;;;;;;;5.00;1.88;;;22.80;30.30;;;;;;4953498;29;20032;-84
2022/04/18 13:43:51;;;;;;;2.03;1.48;;;23.40;29.30;;;;;;4953735;28;20034;-86
2022/04/18 13:46:18;;;;;;;2.55;1.80;;;23.60;29.10;;;;;;4937493;29;20024;-85
2022/04/18 13:48:48;;;;;;;2.65;1.60;;;23.60;28.80;;;;;;4940052;29;20031;-86
2022/04/18 13:51:15;;;;;;;2.63;1.48;;;23.50;29.20;;;;;;4956486;28;20039;-85